createdAt,value
2022-10-28T00:01:25.646Z,60.96
2022-10-28T00:03:55.454Z,61.29
2022-10-28T00:06:25.479Z,61.06
2022-10-28T00:08:54.282Z,61.22
2022-10-28T00:11:26.523Z,61.30
2022-10-28T00:13:55.926Z,61.08
2022-10-28T00:16:25.940Z,61.08
2022-10-28T00:18:54.869Z,61.24
2022-10-28T00:21:25.788Z,61.11
2022-10-28T00:23:54.713Z,61.06
2022-10-28T00:26:26.630Z,61.09
2022-10-28T00:28:56.797Z,60.88
2022-10-28T00:31:27.072Z,61.03
2022-10-28T00:33:56.372Z,61.03
2022-10-28T00:36:27.268Z,61.32
2022-10-28T00:38:57.264Z,61.13
2022-10-28T00:41:28.425Z,60.89
2022-10-28T00:43:58.328Z,61.13
2022-10-28T00:46:31.082Z,61.01
2022-10-28T00:49:02.628Z,60.75
2022-10-28T00:51:33.338Z,61.00
2022-10-28T00:54:01.913Z,61.21
2022-10-28T00:56:34.911Z,61.16
2022-10-28T00:59:05.531Z,60.92
2022-10-28T01:01:34.349Z,61.05
2022-10-28T01:04:03.023Z,60.83
2022-10-28T01:06:31.740Z,61.00
2022-10-28T01:09:00.433Z,60.95
2022-10-28T01:11:51.262Z,61.02
2022-10-28T01:14:25.396Z,60.83
2022-10-28T01:17:03.447Z,61.09
2022-10-28T01:19:54.409Z,60.93
2022-10-28T01:22:25.684Z,60.85
2022-10-28T01:25:03.598Z,60.89
2022-10-28T01:27:57.244Z,60.87
2022-10-28T01:30:27.013Z,60.78
2022-10-28T01:33:03.396Z,60.71
2022-10-28T01:35:35.409Z,60.85
2022-10-28T01:38:16.154Z,60.76
2022-10-28T01:40:48.525Z,60.73
2022-10-28T01:43:22.822Z,60.70
2022-10-28T01:45:58.157Z,60.79
2022-10-28T01:48:31.701Z,60.81
2022-10-28T01:51:06.486Z,60.71
2022-10-28T01:53:38.115Z,60.66
2022-10-28T01:56:09.405Z,60.79
2022-10-28T01:58:39.065Z,60.85
2022-10-28T02:01:09.266Z,60.65
2022-10-28T02:03:39.384Z,60.77
2022-10-28T02:06:09.050Z,60.53
2022-10-28T02:08:55.877Z,60.61
2022-10-28T02:11:35.613Z,60.72
2022-10-28T02:14:11.997Z,60.75
2022-10-28T02:16:45.784Z,60.29
2022-10-28T02:19:20.404Z,60.40
2022-10-28T02:21:56.377Z,60.79
2022-10-28T02:24:30.550Z,60.55
2022-10-28T02:27:04.456Z,60.60
2022-10-28T02:29:35.233Z,60.63
2022-10-28T02:32:07.489Z,60.59
2022-10-28T02:34:40.729Z,60.44
2022-10-28T02:37:13.264Z,60.38
2022-10-28T02:39:45.441Z,60.62
2022-10-28T02:42:16.564Z,60.75
2022-10-28T02:44:48.896Z,60.37
2022-10-28T02:47:20.510Z,60.49
2022-10-28T02:49:51.718Z,60.61
2022-10-28T02:52:21.282Z,60.39
2022-10-28T02:54:54.025Z,60.50
2022-10-28T02:57:24.145Z,60.42
2022-10-28T02:59:54.425Z,60.19
2022-10-28T03:02:22.910Z,60.49
2022-10-28T03:04:52.884Z,60.18
2022-10-28T03:07:21.510Z,60.33
2022-10-28T03:09:50.028Z,60.45
2022-10-28T03:12:18.739Z,60.17
2022-10-28T03:14:47.730Z,60.44
2022-10-28T03:17:16.168Z,60.21
2022-10-28T03:19:44.650Z,60.42
2022-10-28T03:22:14.455Z,60.67
2022-10-28T03:24:42.912Z,60.33
2022-10-28T03:27:11.330Z,60.16
2022-10-28T03:29:43.449Z,60.46
2022-10-28T03:32:14.717Z,60.62
2022-10-28T03:34:43.228Z,60.16
2022-10-28T03:37:11.678Z,60.51
2022-10-28T03:39:41.493Z,60.43
2022-10-28T03:42:09.930Z,60.21
2022-10-28T03:44:38.370Z,60.44
2022-10-28T03:47:06.835Z,60.52
2022-10-28T03:49:35.289Z,60.14
2022-10-28T03:52:04.031Z,60.34
2022-10-28T03:54:32.546Z,60.20
2022-10-28T03:57:02.346Z,60.27
2022-10-28T03:59:30.821Z,60.16
2022-10-28T04:01:59.455Z,60.17
2022-10-28T04:04:30.018Z,60.01
2022-10-28T04:06:59.274Z,60.38
2022-10-28T04:09:27.679Z,60.14
2022-10-28T04:11:56.569Z,60.08
2022-10-28T04:14:26.649Z,59.96
2022-10-28T04:16:55.213Z,60.29
2022-10-28T04:19:23.756Z,60.22
2022-10-28T04:21:52.292Z,60.23
2022-10-28T04:24:20.877Z,60.00
2022-10-28T04:26:49.337Z,60.40
2022-10-28T04:29:17.912Z,60.09
2022-10-28T04:31:50.007Z,60.10
2022-10-28T04:34:20.725Z,60.21
2022-10-28T04:36:49.202Z,60.01
2022-10-28T04:39:17.944Z,60.25
2022-10-28T04:41:46.366Z,60.38
2022-10-28T04:44:14.858Z,60.14
2022-10-28T04:46:43.646Z,60.19
2022-10-28T04:49:13.487Z,60.26
2022-10-28T04:51:42.031Z,60.15
2022-10-28T04:54:10.550Z,59.98
2022-10-28T04:56:39.019Z,60.08
2022-10-28T04:59:07.489Z,59.87
2022-10-28T05:01:36.343Z,60.38
2022-10-28T05:04:05.273Z,60.08
2022-10-28T05:06:35.073Z,60.21
2022-10-28T05:09:03.511Z,59.90
2022-10-28T05:11:36.042Z,59.69
2022-10-28T05:14:04.522Z,59.89
2022-10-28T05:16:32.978Z,59.81
2022-10-28T05:19:01.491Z,59.73
2022-10-28T05:21:30.564Z,59.61
2022-10-28T05:24:00.592Z,60.01
2022-10-28T05:26:29.080Z,59.74
2022-10-28T05:28:57.536Z,59.92
2022-10-28T05:31:26.108Z,59.58
2022-10-28T05:33:54.637Z,59.75
2022-10-28T05:36:23.072Z,59.90
2022-10-28T05:38:51.736Z,59.96
2022-10-28T05:41:23.330Z,59.54
2022-10-28T05:43:52.350Z,59.82
2022-10-28T05:46:22.279Z,59.80
2022-10-28T05:48:50.848Z,59.86
2022-10-28T05:51:19.270Z,59.74
2022-10-28T05:53:47.898Z,59.90
2022-10-28T05:56:16.409Z,59.89
2022-10-28T05:58:47.533Z,59.75
2022-10-28T06:01:16.251Z,59.73
2022-10-28T06:03:44.710Z,59.93
2022-10-28T06:06:13.183Z,59.57
2022-10-28T06:08:42.047Z,59.66
2022-10-28T06:11:09.090Z,59.76
2022-10-28T06:13:37.651Z,59.84
2022-10-28T06:16:08.337Z,59.98
2022-10-28T06:18:36.785Z,59.62
2022-10-28T06:21:05.613Z,59.63
2022-10-28T06:23:34.165Z,59.97
2022-10-28T06:26:04.350Z,59.92
2022-10-28T06:28:32.821Z,59.65
2022-10-28T06:31:01.979Z,59.78
2022-10-28T06:33:32.615Z,59.88
2022-10-28T06:36:01.294Z,59.80
2022-10-28T06:38:30.772Z,59.72
2022-10-28T06:40:59.424Z,59.41
2022-10-28T06:43:27.979Z,59.61
2022-10-28T06:45:56.558Z,59.50
2022-10-28T06:48:26.593Z,59.66
2022-10-28T06:50:58.031Z,59.56
2022-10-28T06:53:27.089Z,59.69
2022-10-28T06:55:56.252Z,59.37
2022-10-28T06:58:25.423Z,59.69
2022-10-28T07:00:54.119Z,59.62
2022-10-28T07:03:23.600Z,59.58
2022-10-28T07:05:52.568Z,59.49
2022-10-28T07:08:22.651Z,59.58
2022-10-28T07:10:56.246Z,59.80
2022-10-28T07:13:25.042Z,59.66
2022-10-28T07:15:53.721Z,59.50
2022-10-28T07:18:22.973Z,59.57
2022-10-28T07:20:51.860Z,59.59
2022-10-28T07:23:20.592Z,59.28
2022-10-28T07:25:54.774Z,59.62
2022-10-28T07:28:24.772Z,59.29
2022-10-28T07:30:53.442Z,59.39
2022-10-28T07:33:22.000Z,59.45
2022-10-28T07:35:50.532Z,59.41
2022-10-28T07:38:19.104Z,59.33
2022-10-28T07:40:47.625Z,59.62
2022-10-28T07:43:17.505Z,59.75
2022-10-28T07:45:45.969Z,59.38
2022-10-28T07:48:14.566Z,59.07
2022-10-28T07:50:43.090Z,59.27
2022-10-28T07:53:11.658Z,59.58
2022-10-28T07:55:40.175Z,59.80
2022-10-28T07:58:08.591Z,59.62
2022-10-28T08:00:38.483Z,59.62
2022-10-28T08:03:07.373Z,59.54
2022-10-28T08:05:36.078Z,59.58
2022-10-28T08:08:04.904Z,59.61
2022-10-28T08:10:33.397Z,59.09
2022-10-28T08:13:02.930Z,59.33
2022-10-28T08:15:31.683Z,59.24
2022-10-28T08:18:01.596Z,59.46
2022-10-28T08:20:30.068Z,59.12
2022-10-28T08:23:02.744Z,59.21
2022-10-28T08:25:33.790Z,59.25
2022-10-28T08:28:02.654Z,59.16
2022-10-28T08:30:40.404Z,59.16
2022-10-28T08:33:20.526Z,59.21
2022-10-28T08:35:51.564Z,59.36
2022-10-28T08:38:20.064Z,59.28
2022-10-28T08:40:55.536Z,59.33
2022-10-28T08:43:40.262Z,59.40
2022-10-28T08:46:25.124Z,59.16
2022-10-28T08:48:54.983Z,58.99
2022-10-28T08:51:26.197Z,59.35
2022-10-28T08:53:57.525Z,59.03
2022-10-28T08:56:29.915Z,58.84
2022-10-28T08:59:00.442Z,59.13
2022-10-28T09:01:37.276Z,59.15
2022-10-28T09:04:22.990Z,58.97
2022-10-28T09:06:51.491Z,59.02
2022-10-28T09:09:22.327Z,59.03
2022-10-28T09:11:58.731Z,59.01
2022-10-28T09:14:36.114Z,59.18
2022-10-28T09:17:13.184Z,59.17
2022-10-28T09:19:48.407Z,58.56
2022-10-28T09:22:25.735Z,58.55
2022-10-28T09:24:56.518Z,58.56
2022-10-28T09:27:41.482Z,58.53
2022-10-28T09:30:21.961Z,58.48
2022-10-28T09:32:59.400Z,58.66
2022-10-28T09:35:32.496Z,58.31
2022-10-28T09:38:07.069Z,58.41
2022-10-28T09:40:37.854Z,58.35
2022-10-28T09:43:08.851Z,58.73
2022-10-28T09:45:39.084Z,58.61
2022-10-28T09:48:13.910Z,58.23
2022-10-28T09:50:44.143Z,58.03
2022-10-28T09:53:17.501Z,58.51
2022-10-28T09:55:46.164Z,58.33
2022-10-28T09:58:14.892Z,58.29
2022-10-28T10:00:43.366Z,58.32
2022-10-28T10:03:11.912Z,58.16
2022-10-28T10:05:45.082Z,58.04
2022-10-28T10:08:16.065Z,58.20
2022-10-28T10:10:49.888Z,58.01
2022-10-28T10:13:21.683Z,58.04
2022-10-28T10:15:53.867Z,57.96
2022-10-28T10:18:24.905Z,57.93
2022-10-28T10:20:57.553Z,58.08
2022-10-28T10:23:31.013Z,57.86
2022-10-28T10:26:01.699Z,57.96
2022-10-28T10:28:30.468Z,57.83
2022-10-28T10:31:00.193Z,57.83
2022-10-28T10:33:32.756Z,57.66
2022-10-28T10:36:05.990Z,57.64
2022-10-28T10:38:36.340Z,57.66
2022-10-28T10:41:05.493Z,57.84
2022-10-28T10:43:34.973Z,57.89
2022-10-28T10:46:05.607Z,57.92
2022-10-28T10:48:36.426Z,57.99
2022-10-28T10:51:10.935Z,57.97
2022-10-28T10:53:39.769Z,57.85
2022-10-28T10:56:10.720Z,57.92
2022-10-28T10:58:41.883Z,58.13
2022-10-28T11:01:11.326Z,58.22
2022-10-28T11:03:47.204Z,58.44
2022-10-28T11:06:24.220Z,58.66
2022-10-28T11:08:57.060Z,58.79
2022-10-28T11:11:33.357Z,58.76
2022-10-28T11:14:08.414Z,58.85
2022-10-28T11:16:49.109Z,59.17
2022-10-28T11:19:22.749Z,59.12
2022-10-28T11:22:10.076Z,59.09
2022-10-28T11:24:55.464Z,59.17
2022-10-28T11:27:35.168Z,59.20
2022-10-28T11:30:04.570Z,59.37
2022-10-28T11:33:08.223Z,59.11
2022-10-28T11:35:45.382Z,59.01
2022-10-28T11:38:23.550Z,59.53
2022-10-28T11:41:02.994Z,59.07
2022-10-28T11:43:36.227Z,59.33
2022-10-28T11:46:07.949Z,59.16
2022-10-28T11:48:50.414Z,58.94
2022-10-28T11:51:28.084Z,59.29
2022-10-28T11:54:10.281Z,59.52
2022-10-28T11:56:40.818Z,59.36
2022-10-28T11:59:37.971Z,59.23
2022-10-28T12:02:17.548Z,59.35
2022-10-28T12:04:59.706Z,59.39
2022-10-28T12:07:47.857Z,58.89
2022-10-28T12:10:33.461Z,59.34
2022-10-28T12:13:09.493Z,59.02
2022-10-28T12:15:46.278Z,59.49
2022-10-28T12:18:20.535Z,59.05
2022-10-28T12:20:54.047Z,59.01
2022-10-28T12:23:25.014Z,59.33
2022-10-28T12:25:57.351Z,59.08
2022-10-28T12:28:29.767Z,58.77
2022-10-28T12:30:58.753Z,59.25
2022-10-28T12:33:32.042Z,59.12
2022-10-28T12:36:18.039Z,59.05
2022-10-28T12:38:50.315Z,59.44
2022-10-28T12:41:22.514Z,58.82
2022-10-28T12:45:05.758Z,58.87
2022-10-28T12:47:43.021Z,58.95
2022-10-28T12:50:18.723Z,58.62
2022-10-28T12:52:52.508Z,58.54
2022-10-28T12:55:27.297Z,58.95
2022-10-28T12:58:02.507Z,58.77
2022-10-28T13:00:33.950Z,58.82
2022-10-28T13:03:05.247Z,58.65
2022-10-28T13:05:41.057Z,59.13
2022-10-28T13:08:37.706Z,59.35
2022-10-28T13:11:55.208Z,59.21
2022-10-28T13:14:36.843Z,59.11
2022-10-28T13:17:18.019Z,58.88
2022-10-28T13:19:59.010Z,59.12
2022-10-28T13:22:48.556Z,58.89
2022-10-28T13:25:39.938Z,59.09
2022-10-28T13:28:13.906Z,59.09
2022-10-28T13:30:55.114Z,58.97
2022-10-28T13:33:25.751Z,59.18
2022-10-28T13:38:25.880Z,59.35
2022-10-28T13:41:31.140Z,59.13
2022-10-28T13:44:15.930Z,59.22
2022-10-28T13:47:27.561Z,59.02
2022-10-28T13:50:41.313Z,59.09
2022-10-28T13:53:53.198Z,59.27
2022-10-28T13:56:31.094Z,59.12
2022-10-28T13:59:01.100Z,59.43
2022-10-28T14:01:56.721Z,59.45
2022-10-28T14:04:33.525Z,59.46
2022-10-28T14:07:17.582Z,59.51
2022-10-28T14:09:46.004Z,59.55
2022-10-28T14:12:18.513Z,59.64
2022-10-28T14:15:18.912Z,59.55
2022-10-28T14:17:50.216Z,59.74
2022-10-28T14:20:29.139Z,59.72
2022-10-28T14:22:59.577Z,59.73
2022-10-28T14:26:04.435Z,59.88
2022-10-28T14:28:53.784Z,60.24
2022-10-28T14:31:46.183Z,60.12
2022-10-28T14:34:41.474Z,59.89
2022-10-28T14:37:41.966Z,59.91
2022-10-28T14:40:23.203Z,59.99
2022-10-28T14:43:17.107Z,60.01
2022-10-28T14:45:58.876Z,60.22
2022-10-28T14:48:46.058Z,60.16
2022-10-28T14:51:16.493Z,60.21
2022-10-28T14:53:48.222Z,60.19
2022-10-28T14:56:26.625Z,60.23
2022-10-28T14:58:57.798Z,60.15
2022-10-28T15:01:30.620Z,60.07
2022-10-28T15:04:01.253Z,60.30
2022-10-28T15:06:33.969Z,60.35
2022-10-28T15:09:08.251Z,59.92
2022-10-28T15:11:38.142Z,60.08
2022-10-28T15:14:30.330Z,60.00
2022-10-28T15:17:00.067Z,60.05
2022-10-28T15:19:30.175Z,60.27
2022-10-28T15:22:03.469Z,60.33
2022-10-28T15:24:31.913Z,59.98
2022-10-28T15:27:01.934Z,60.27
2022-10-28T15:29:35.014Z,60.14
2022-10-28T15:32:16.343Z,60.18
2022-10-28T15:34:45.060Z,60.15
2022-10-28T15:37:18.736Z,60.08
2022-10-28T15:39:48.347Z,60.02
2022-10-28T15:42:42.163Z,59.96
2022-10-28T15:45:22.728Z,60.25
2022-10-28T15:47:51.790Z,60.27
2022-10-28T15:50:34.361Z,60.28
2022-10-28T15:53:34.459Z,60.11
2022-10-28T15:56:22.222Z,60.14
2022-10-28T15:59:05.018Z,60.50
2022-10-28T16:01:39.333Z,60.24
2022-10-28T16:04:41.650Z,60.14
2022-10-28T16:07:12.502Z,60.30
2022-10-28T16:09:44.759Z,60.26
2022-10-28T16:12:15.476Z,60.29
2022-10-28T16:14:45.133Z,60.11
2022-10-28T16:17:16.794Z,60.01
2022-10-28T16:19:50.713Z,60.31
2022-10-28T16:22:20.936Z,60.39
2022-10-28T16:24:50.173Z,60.35
2022-10-28T16:27:20.757Z,60.13
2022-10-28T16:29:50.331Z,60.33
2022-10-28T16:32:21.775Z,60.29
2022-10-28T16:34:52.642Z,60.10
2022-10-28T16:37:24.906Z,60.10
2022-10-28T16:39:54.010Z,60.29
2022-10-28T16:42:23.282Z,60.29
2022-10-28T16:44:51.902Z,60.48
2022-10-28T16:47:21.614Z,60.28
2022-10-28T16:49:54.240Z,60.41
2022-10-28T16:52:28.942Z,60.38
2022-10-28T16:54:57.999Z,60.28
2022-10-28T16:57:26.486Z,60.23
2022-10-28T16:59:55.672Z,60.19
2022-10-28T17:02:27.401Z,60.39
2022-10-28T17:04:56.723Z,60.51
2022-10-28T17:07:26.822Z,60.34
2022-10-28T17:09:56.740Z,60.71
2022-10-28T17:12:27.073Z,60.32
2022-10-28T17:14:55.844Z,60.39
2022-10-28T17:17:24.656Z,60.50
2022-10-28T17:19:56.457Z,60.58
2022-10-28T17:22:25.432Z,60.47
2022-10-28T17:24:57.934Z,60.28
2022-10-28T17:27:38.095Z,60.80
2022-10-28T17:30:13.053Z,60.50
2022-10-28T17:32:41.483Z,60.65
2022-10-28T17:35:10.827Z,60.53
2022-10-28T17:37:39.360Z,60.76
2022-10-28T17:40:11.126Z,60.92
2022-10-28T17:42:39.769Z,60.88
2022-10-28T17:45:08.898Z,60.90
2022-10-28T17:47:37.391Z,61.04
2022-10-28T17:50:06.955Z,61.10
2022-10-28T17:52:38.253Z,61.18
2022-10-28T17:55:09.973Z,61.36
2022-10-28T17:57:38.448Z,61.31
2022-10-28T18:00:08.395Z,61.46
2022-10-28T18:02:48.604Z,61.72
2022-10-28T18:05:17.082Z,61.54
2022-10-28T18:07:45.485Z,61.73
2022-10-28T18:10:26.885Z,61.38
2022-10-28T18:12:57.651Z,61.63
2022-10-28T18:15:31.422Z,62.00
2022-10-28T18:18:04.708Z,61.84
2022-10-28T18:20:33.462Z,61.84
2022-10-28T18:23:09.958Z,61.88
2022-10-28T18:25:46.973Z,61.86
2022-10-28T18:28:24.796Z,61.44
2022-10-28T18:30:53.441Z,61.76
2022-10-28T18:33:25.797Z,61.90
2022-10-28T18:35:59.540Z,61.82
2022-10-28T18:38:30.962Z,62.26
2022-10-28T18:41:06.642Z,62.18
2022-10-28T18:43:44.792Z,61.73
2022-10-28T18:46:19.658Z,61.91
2022-10-28T18:48:48.340Z,61.52
2022-10-28T18:51:17.560Z,61.68
2022-10-28T18:53:47.845Z,61.98
2022-10-28T18:56:19.375Z,62.02
2022-10-28T18:58:51.591Z,62.09
2022-10-28T19:01:22.010Z,62.16
2022-10-28T19:03:52.854Z,61.97
2022-10-28T19:06:21.888Z,62.12
2022-10-28T19:08:54.016Z,62.04
2022-10-28T19:11:25.851Z,61.99
2022-10-28T19:13:54.408Z,61.89
2022-10-28T19:16:23.487Z,62.07
2022-10-28T19:18:55.638Z,62.15
2022-10-28T19:21:24.786Z,62.06
2022-10-28T19:23:53.751Z,62.14
2022-10-28T19:26:31.766Z,62.25
2022-10-28T19:29:02.701Z,62.22
2022-10-28T19:31:41.948Z,61.88
2022-10-28T19:34:15.487Z,62.10
2022-10-28T19:36:46.398Z,62.35
2022-10-28T19:39:19.433Z,62.45
2022-10-28T19:41:50.267Z,62.25
2022-10-28T19:44:18.885Z,62.23
2022-10-28T19:46:47.666Z,61.90
2022-10-28T19:49:16.284Z,62.13
2022-10-28T19:51:44.718Z,62.29
2022-10-28T19:54:15.040Z,62.39
2022-10-28T19:56:45.397Z,62.54
2022-10-28T19:59:15.409Z,61.83
2022-10-28T20:01:46.480Z,62.01
2022-10-28T20:04:15.053Z,62.11
2022-10-28T20:06:43.502Z,62.27
2022-10-28T20:09:12.003Z,62.44
2022-10-28T20:11:40.535Z,62.28
2022-10-28T20:14:16.391Z,62.42
2022-10-28T20:16:53.592Z,62.27
2022-10-28T20:19:22.296Z,62.45
2022-10-28T20:21:58.963Z,62.13
2022-10-28T20:24:37.868Z,62.55
2022-10-28T20:27:07.302Z,62.29
2022-10-28T20:29:38.727Z,62.22
2022-10-28T20:32:09.382Z,62.20
2022-10-28T20:34:45.673Z,62.15
2022-10-28T20:37:14.129Z,62.37
2022-10-28T20:39:42.643Z,61.92
2022-10-28T20:42:31.812Z,62.16
2022-10-28T20:45:00.992Z,62.14
2022-10-28T20:47:35.512Z,61.98
2022-10-28T20:50:09.946Z,61.90
2022-10-28T20:52:46.307Z,62.07
2022-10-28T20:55:14.956Z,62.59
2022-10-28T20:57:43.595Z,62.22
2022-10-28T21:00:18.457Z,61.98
2022-10-28T21:03:37.246Z,62.09
2022-10-28T21:06:50.780Z,62.05
2022-10-28T21:10:01.511Z,62.12
2022-10-28T21:12:52.127Z,62.10
2022-10-28T21:15:20.715Z,62.10
2022-10-28T21:17:54.682Z,61.84
2022-10-28T21:20:39.380Z,61.88
2022-10-28T21:23:22.431Z,62.00
2022-10-28T21:26:06.533Z,61.99
2022-10-28T21:29:00.896Z,61.94
2022-10-28T21:35:24.624Z,61.97
2022-10-28T21:42:06.974Z,62.07
2022-10-28T21:44:35.844Z,61.84
2022-10-28T21:47:05.371Z,61.94
2022-10-28T21:49:34.084Z,61.90
2022-10-28T21:52:02.854Z,61.98
2022-10-28T21:54:34.039Z,61.97
2022-10-28T21:57:02.706Z,61.83
2022-10-28T21:59:31.200Z,61.53
2022-10-28T22:01:59.957Z,61.93
2022-10-28T22:04:29.595Z,61.97
2022-10-28T22:06:58.546Z,62.03
2022-10-28T22:09:27.226Z,61.92
2022-10-28T22:11:57.861Z,61.97
2022-10-28T22:14:26.475Z,61.68
2022-10-28T22:16:55.114Z,61.89
2022-10-28T22:19:25.419Z,61.89
2022-10-28T22:21:53.899Z,62.02
2022-10-28T22:24:22.331Z,61.74
2022-10-28T22:26:50.996Z,61.88
2022-10-28T22:29:20.925Z,61.90
2022-10-28T22:31:49.828Z,61.88
2022-10-28T22:34:18.339Z,61.85
2022-10-28T22:36:47.670Z,62.05
2022-10-28T22:39:16.077Z,61.58
2022-10-28T22:41:44.561Z,61.88
2022-10-28T22:44:13.025Z,62.01
2022-10-28T22:46:43.114Z,61.81
2022-10-28T22:49:11.544Z,61.91
2022-10-28T22:51:40.023Z,62.05
2022-10-28T22:54:08.514Z,61.81
2022-10-28T22:56:36.943Z,61.92
2022-10-28T22:59:05.378Z,61.99
2022-10-28T23:01:34.329Z,61.86
2022-10-28T23:04:04.264Z,61.81
2022-10-28T23:06:32.700Z,61.90
2022-10-28T23:09:01.486Z,61.87
2022-10-28T23:11:29.968Z,61.88
2022-10-28T23:13:58.443Z,62.07
2022-10-28T23:16:27.068Z,61.97
2022-10-28T23:18:55.809Z,61.68
2022-10-28T23:21:26.652Z,61.92
2022-10-28T23:23:56.470Z,61.73
2022-10-28T23:26:25.209Z,62.07
2022-10-28T23:28:55.221Z,61.86
2022-10-28T23:31:24.318Z,61.67
2022-10-28T23:33:54.295Z,61.95
2022-10-28T23:36:23.027Z,61.82
2022-10-28T23:38:53.894Z,61.80
2022-10-28T23:41:22.354Z,62.02
2022-10-28T23:43:50.848Z,61.53
2022-10-28T23:46:20.462Z,61.88
2022-10-28T23:48:48.951Z,61.77
2022-10-28T23:51:19.261Z,61.84
2022-10-28T23:53:47.754Z,62.00
2022-10-28T23:56:17.567Z,61.79
2022-10-28T23:58:46.041Z,61.67
